createdAt,value
2023-02-14T00:00:58.710Z,97041.20
2023-02-14T00:03:25.588Z,97042.40
2023-02-14T00:05:52.119Z,97038.00
2023-02-14T00:08:18.726Z,97032.00
2023-02-14T00:10:45.287Z,97038.00
2023-02-14T00:13:11.818Z,97044.80
2023-02-14T00:15:38.445Z,97050.60
2023-02-14T00:18:06.320Z,97050.20
2023-02-14T00:20:32.947Z,97048.40
2023-02-14T00:23:00.916Z,97048.60
2023-02-14T00:25:27.713Z,97044.80
2023-02-14T00:27:55.653Z,97048.40
2023-02-14T00:30:22.673Z,97054.00
2023-02-14T00:32:49.320Z,97039.40
2023-02-14T00:35:16.885Z,97041.60
2023-02-14T00:40:53.107Z,97046.00
2023-02-14T00:43:19.883Z,97045.60
2023-02-14T00:45:46.558Z,97045.00
2023-02-14T00:48:13.335Z,97046.40
2023-02-14T00:50:39.975Z,97036.20
2023-02-14T00:53:06.930Z,97041.60
2023-02-14T00:55:33.622Z,97042.20
2023-02-14T00:58:00.285Z,97045.20
2023-02-14T01:00:27.363Z,97042.20
2023-02-14T01:02:55.586Z,97049.80
2023-02-14T01:05:22.224Z,97054.20
2023-02-14T01:07:48.864Z,97054.60
2023-02-14T01:10:15.524Z,97052.00
2023-02-14T01:12:42.226Z,97059.80
2023-02-14T01:15:09.507Z,97057.00
2023-02-14T01:17:36.742Z,97057.40
2023-02-14T01:20:04.521Z,97057.00
2023-02-14T01:30:52.466Z,97036.80
2023-02-14T01:33:19.094Z,97041.60
2023-02-14T01:35:46.165Z,97050.00
2023-02-14T01:38:14.572Z,97053.20
2023-02-14T01:40:44.718Z,97049.20
2023-02-14T01:43:20.364Z,97055.80
2023-02-14T01:45:47.145Z,97058.60
2023-02-14T01:48:14.779Z,97056.20
2023-02-14T01:50:44.893Z,97054.20
2023-02-14T01:53:26.256Z,97049.00
2023-02-14T01:56:03.856Z,97049.20
2023-02-14T01:58:34.991Z,97051.40
2023-02-14T02:01:30.350Z,97053.40
2023-02-14T02:04:08.246Z,97057.20
2023-02-14T02:06:49.575Z,97057.40
2023-02-14T02:09:47.388Z,97055.40
2023-02-14T02:12:15.577Z,97050.00
2023-02-14T02:14:43.626Z,97053.40
2023-02-14T02:17:46.285Z,97056.80
2023-02-14T02:20:46.595Z,97050.80
2023-02-14T02:23:47.987Z,97049.40
2023-02-14T02:26:45.183Z,97053.00
2023-02-14T02:29:31.566Z,97048.80
2023-02-14T02:32:44.162Z,97045.40
2023-02-14T02:36:01.176Z,97045.40
2023-02-14T02:38:27.722Z,97047.40
2023-02-14T02:41:07.338Z,97046.00
2023-02-14T02:44:08.347Z,97040.00
2023-02-14T02:46:50.050Z,97044.00
2023-02-14T02:50:22.143Z,97034.00
2023-02-14T02:53:06.418Z,97028.00
2023-02-14T02:56:03.280Z,97022.00
2023-02-14T02:58:37.901Z,97020.80
2023-02-14T03:01:11.727Z,97019.20
2023-02-14T03:03:59.714Z,97020.80
2023-02-14T03:11:12.950Z,97025.80
2023-02-14T03:13:53.731Z,97026.20
2023-02-14T03:16:41.923Z,97026.20
2023-02-14T03:19:40.522Z,97024.80
2023-02-14T03:22:27.122Z,97024.80
2023-02-14T03:25:13.078Z,97028.00
2023-02-14T03:27:55.777Z,97031.60
2023-02-14T03:30:31.424Z,97030.60
2023-02-14T03:33:01.821Z,97033.40
2023-02-14T03:35:55.764Z,97029.60
2023-02-14T03:38:34.471Z,97026.80
2023-02-14T03:41:07.398Z,97027.60
2023-02-14T03:43:40.035Z,97021.20
2023-02-14T03:46:13.891Z,97017.80
2023-02-14T03:48:42.926Z,97028.20
2023-02-14T03:51:13.439Z,97040.60
2023-02-14T03:53:46.972Z,97035.00
2023-02-14T03:56:37.540Z,97038.20
2023-02-14T03:59:13.858Z,97039.00
2023-02-14T04:01:52.766Z,97038.20
2023-02-14T04:04:23.631Z,97041.00
2023-02-14T04:06:50.466Z,97038.00
2023-02-14T04:09:17.169Z,97036.20
2023-02-14T04:11:44.053Z,97037.80
2023-02-14T04:14:10.762Z,97033.20
2023-02-14T04:16:57.324Z,97029.40
2023-02-14T04:19:23.955Z,97033.60
2023-02-14T04:21:51.899Z,97036.40
2023-02-14T04:24:19.209Z,97045.40
2023-02-14T04:27:10.164Z,97045.00
2023-02-14T04:29:44.258Z,97037.80
2023-02-14T04:32:22.744Z,97037.80
2023-02-14T04:34:49.891Z,97035.00
2023-02-14T04:37:19.238Z,97034.80
2023-02-14T04:39:46.638Z,97033.00
2023-02-14T04:42:14.187Z,97038.40
2023-02-14T04:44:41.046Z,97041.20
2023-02-14T04:47:08.066Z,97037.60
2023-02-14T04:49:35.295Z,97030.40
2023-02-14T04:52:02.336Z,97028.60
2023-02-14T04:54:29.123Z,97026.20
2023-02-14T04:56:55.729Z,97019.20
2023-02-14T04:59:24.761Z,97020.00
2023-02-14T05:01:53.170Z,97022.80
2023-02-14T05:04:20.034Z,97023.40
2023-02-14T05:06:46.638Z,97023.60
2023-02-14T05:09:13.270Z,97028.60
2023-02-14T05:11:39.895Z,97016.00
2023-02-14T05:14:06.466Z,97002.60
2023-02-14T05:16:33.163Z,97011.40
2023-02-14T05:18:59.830Z,97003.80
2023-02-14T05:21:26.569Z,96994.60
2023-02-14T05:23:53.131Z,96997.40
2023-02-14T05:26:19.736Z,97005.40
2023-02-14T05:28:46.246Z,96997.60
2023-02-14T05:31:12.908Z,96999.80
2023-02-14T05:33:39.608Z,97001.60
2023-02-14T05:36:06.753Z,96994.20
2023-02-14T05:38:34.882Z,96993.60
2023-02-14T05:41:02.468Z,96991.60
2023-02-14T05:43:30.459Z,96995.80
2023-02-14T05:45:58.032Z,97003.20
2023-02-14T05:48:25.175Z,97002.60
2023-02-14T05:50:51.847Z,97009.80
2023-02-14T05:53:18.546Z,97012.80
2023-02-14T05:55:45.204Z,97013.40
2023-02-14T05:58:12.672Z,97015.00
2023-02-14T06:00:41.401Z,97011.40
2023-02-14T06:03:08.818Z,97020.00
2023-02-14T06:05:35.555Z,97018.40
2023-02-14T06:08:02.339Z,97018.80
2023-02-14T06:10:29.173Z,97022.20
2023-02-14T06:12:55.858Z,97015.40
2023-02-14T06:15:23.349Z,97020.00
2023-02-14T06:17:55.353Z,97017.40
2023-02-14T06:20:24.750Z,97014.20
2023-02-14T06:22:52.466Z,97024.60
2023-02-14T06:25:20.383Z,97028.20
2023-02-14T06:27:49.262Z,97031.40
2023-02-14T06:30:18.034Z,97033.80
2023-02-14T06:32:44.990Z,97024.60
2023-02-14T06:35:11.702Z,97028.60
2023-02-14T06:37:38.893Z,97031.40
2023-02-14T06:40:06.601Z,97036.00
2023-02-14T06:42:33.235Z,97031.80
2023-02-14T06:44:59.798Z,97029.20
2023-02-14T06:47:26.442Z,97032.80
2023-02-14T06:49:53.184Z,97033.20
2023-02-14T06:52:20.201Z,97030.40
2023-02-14T06:54:47.364Z,97033.40
2023-02-14T06:57:14.082Z,97031.00
2023-02-14T06:59:40.725Z,97029.00
2023-02-14T07:02:10.222Z,97019.00
2023-02-14T07:04:36.838Z,97023.40
2023-02-14T07:07:04.970Z,97024.80
2023-02-14T07:09:31.681Z,97025.00
2023-02-14T07:11:58.404Z,97017.60
2023-02-14T07:14:25.033Z,97021.80
2023-02-14T07:16:51.694Z,97027.00
2023-02-14T07:19:18.333Z,97024.20
2023-02-14T07:21:45.070Z,97017.80
2023-02-14T07:24:11.694Z,97015.80
2023-02-14T07:26:38.277Z,97010.00
2023-02-14T07:29:05.514Z,97014.80
2023-02-14T07:31:32.384Z,97017.60
2023-02-14T07:34:01.286Z,97017.00
2023-02-14T07:36:28.291Z,97016.80
2023-02-14T07:38:57.872Z,97012.40
2023-02-14T07:41:24.534Z,97010.80
2023-02-14T07:43:51.145Z,97010.80
2023-02-14T07:46:18.345Z,97009.00
2023-02-14T07:48:45.194Z,97002.60
2023-02-14T07:51:12.158Z,97001.00
2023-02-14T07:53:38.823Z,96995.20
2023-02-14T07:56:05.917Z,96991.80
2023-02-14T07:58:32.611Z,96990.40
2023-02-14T08:00:59.655Z,96989.20
2023-02-14T08:03:26.765Z,96992.00
2023-02-14T08:05:57.397Z,96986.60
2023-02-14T08:08:30.295Z,96983.80
2023-02-14T08:10:57.863Z,96978.60
2023-02-14T08:13:24.797Z,96980.40
2023-02-14T08:16:09.541Z,96970.20
2023-02-14T08:18:40.109Z,96974.00
2023-02-14T08:21:09.817Z,96973.40
2023-02-14T08:23:38.162Z,96969.40
2023-02-14T08:26:05.613Z,96964.60
2023-02-14T08:28:33.328Z,96965.40
2023-02-14T08:31:00.667Z,96970.00
2023-02-14T08:33:27.981Z,96975.80
2023-02-14T08:35:54.850Z,96972.40
2023-02-14T08:38:21.660Z,96970.60
2023-02-14T08:40:48.401Z,96970.60
2023-02-14T08:43:15.153Z,96968.40
2023-02-14T08:45:41.997Z,96973.40
2023-02-14T08:48:12.273Z,96967.40
2023-02-14T08:50:40.275Z,96967.80
2023-02-14T08:53:13.060Z,96972.80
2023-02-14T08:55:40.578Z,96973.60
2023-02-14T08:58:08.836Z,96970.80
2023-02-14T09:00:35.699Z,96974.00
2023-02-14T09:03:02.693Z,96975.40
2023-02-14T09:05:29.569Z,96978.20
2023-02-14T09:07:57.142Z,96984.00
2023-02-14T09:10:25.024Z,96978.40
2023-02-14T09:12:52.362Z,96976.00
2023-02-14T09:15:19.405Z,96982.20
2023-02-14T09:17:46.951Z,96986.60
2023-02-14T09:20:15.530Z,96981.80
2023-02-14T09:22:42.284Z,96978.60
2023-02-14T09:25:09.269Z,96974.20
2023-02-14T09:27:35.956Z,96976.40
2023-02-14T09:30:03.830Z,96979.00
2023-02-14T09:32:31.565Z,96967.40
2023-02-14T09:35:17.198Z,96957.00
2023-02-14T09:38:02.380Z,96949.80
2023-02-14T09:40:29.266Z,96950.40
2023-02-14T09:43:50.340Z,96942.40
2023-02-14T09:46:18.956Z,96932.80
2023-02-14T09:48:48.550Z,96929.00
2023-02-14T09:51:25.349Z,96920.80
2023-02-14T09:54:12.123Z,96916.40
2023-02-14T09:56:57.550Z,96913.80
2023-02-14T09:59:44.042Z,96911.20
2023-02-14T10:02:45.134Z,96910.20
2023-02-14T10:05:32.716Z,96910.40
2023-02-14T10:08:12.602Z,96906.80
2023-02-14T10:10:46.779Z,96905.80
2023-02-14T10:13:31.721Z,96904.20
2023-02-14T10:16:28.347Z,96899.00
2023-02-14T10:19:26.891Z,96897.60
2023-02-14T10:22:02.839Z,96899.00
2023-02-14T10:24:46.198Z,96893.40
2023-02-14T10:27:35.516Z,96892.60
2023-02-14T10:30:27.832Z,96889.40
2023-02-14T10:33:16.523Z,96890.80
2023-02-14T10:36:00.567Z,96879.60
2023-02-14T10:38:47.866Z,96882.40
2023-02-14T10:41:37.926Z,96888.00
2023-02-14T10:44:26.395Z,96887.80
2023-02-14T10:47:17.511Z,96885.20
2023-02-14T10:50:32.007Z,96881.20
2023-02-14T10:53:52.767Z,96883.00
2023-02-14T10:56:41.270Z,96880.60
2023-02-14T10:59:31.311Z,96878.00
2023-02-14T11:02:00.479Z,96873.00
2023-02-14T11:04:28.225Z,96869.80
2023-02-14T11:06:54.820Z,96869.80
2023-02-14T11:09:21.555Z,96871.80
2023-02-14T11:11:53.722Z,96870.40
2023-02-14T11:14:25.040Z,96874.00
2023-02-14T11:16:54.405Z,96875.20
2023-02-14T11:19:31.852Z,96872.80
2023-02-14T11:22:01.391Z,96866.80
2023-02-14T11:24:31.330Z,96866.00
2023-02-14T11:27:15.713Z,96860.60
2023-02-14T11:29:52.401Z,96859.80
2023-02-14T11:32:29.454Z,96858.20
2023-02-14T11:35:08.177Z,96852.40
2023-02-14T11:37:50.756Z,96849.00
2023-02-14T11:40:39.597Z,96845.20
2023-02-14T11:43:14.627Z,96846.80
2023-02-14T11:45:48.460Z,96839.20
2023-02-14T11:48:37.819Z,96836.40
2023-02-14T11:51:14.392Z,96838.00
2023-02-14T11:53:47.723Z,96838.80
2023-02-14T11:56:20.413Z,96837.60
2023-02-14T11:59:00.787Z,96838.40
2023-02-14T12:01:34.695Z,96827.40
2023-02-14T12:04:11.755Z,96832.40
2023-02-14T12:06:38.512Z,96834.40
2023-02-14T12:09:23.605Z,96833.60
2023-02-14T12:12:15.619Z,96828.20
2023-02-14T12:14:42.934Z,96819.80
2023-02-14T12:17:36.451Z,96820.80
2023-02-14T12:20:15.970Z,96820.80
2023-02-14T12:23:11.334Z,96817.00
2023-02-14T12:26:01.471Z,96812.40
2023-02-14T12:29:14.939Z,96810.40
2023-02-14T12:31:45.693Z,96806.20
2023-02-14T12:34:15.130Z,96805.40
2023-02-14T12:36:52.807Z,96809.40
2023-02-14T12:39:49.608Z,96802.00
2023-02-14T12:42:35.030Z,96801.40
2023-02-14T12:45:29.469Z,96798.00
2023-02-14T12:48:33.061Z,96794.00
2023-02-14T12:51:40.952Z,96791.20
2023-02-14T12:54:36.428Z,96790.80
2023-02-14T12:57:34.521Z,96786.60
2023-02-14T13:00:13.152Z,96786.60
2023-02-14T13:03:39.258Z,96781.80
2023-02-14T13:06:18.042Z,96778.20
2023-02-14T13:09:02.778Z,96777.80
2023-02-14T13:11:59.179Z,96776.80
2023-02-14T13:14:45.529Z,96770.20
2023-02-14T13:17:34.939Z,96761.20
2023-02-14T13:20:39.321Z,96757.20
2023-02-14T13:23:16.338Z,96749.80
2023-02-14T13:25:50.630Z,96747.80
2023-02-14T13:28:18.956Z,96750.00
2023-02-14T13:30:45.951Z,96744.00
2023-02-14T13:33:29.335Z,96746.80
2023-02-14T13:36:02.170Z,96745.20
2023-02-14T13:38:31.943Z,96741.00
2023-02-14T13:41:02.900Z,96742.80
2023-02-14T13:43:46.567Z,96745.60
2023-02-14T13:46:22.837Z,96741.00
2023-02-14T13:49:18.604Z,96738.00
2023-02-14T13:51:58.748Z,96737.40
2023-02-14T13:54:30.178Z,96737.00
2023-02-14T13:56:59.427Z,96736.60
2023-02-14T13:59:35.254Z,96729.00
2023-02-14T14:02:30.104Z,96727.00
2023-02-14T14:04:56.897Z,96723.40
2023-02-14T14:07:30.909Z,96724.80
2023-02-14T14:10:02.158Z,96727.60
2023-02-14T14:12:28.776Z,96727.40
2023-02-14T14:15:08.050Z,96730.20
2023-02-14T14:17:38.723Z,96727.60
2023-02-14T14:20:29.208Z,96724.80
2023-02-14T14:22:58.674Z,96721.00
2023-02-14T14:25:41.775Z,96721.80
2023-02-14T14:28:24.224Z,96720.20
2023-02-14T14:30:52.338Z,96717.00
2023-02-14T14:33:33.110Z,96721.20
2023-02-14T14:36:08.033Z,96716.20
2023-02-14T14:38:49.341Z,96713.40
2023-02-14T14:41:16.461Z,96716.00
2023-02-14T14:43:43.706Z,96709.80
2023-02-14T14:46:16.338Z,96710.20
2023-02-14T14:48:51.415Z,96710.20
2023-02-14T14:51:26.682Z,96710.40
2023-02-14T14:54:19.775Z,96709.80
2023-02-14T14:57:01.747Z,96711.80
2023-02-14T14:59:38.329Z,96707.00
2023-02-14T15:02:24.076Z,96702.00
2023-02-14T15:04:50.721Z,96705.00
2023-02-14T15:07:34.979Z,96701.80
2023-02-14T15:10:02.454Z,96698.20
2023-02-14T15:12:48.295Z,96699.00
2023-02-14T15:15:17.656Z,96700.20
2023-02-14T15:17:45.817Z,96702.00
2023-02-14T15:20:23.936Z,96701.20
2023-02-14T15:22:53.644Z,96703.20
2023-02-14T15:25:26.769Z,96702.20
2023-02-14T15:27:53.830Z,96703.60
2023-02-14T15:30:20.802Z,96700.80
2023-02-14T15:32:49.988Z,96701.80
2023-02-14T15:35:29.813Z,96706.40
2023-02-14T15:38:02.782Z,96712.00
2023-02-14T15:40:32.958Z,96715.80
2023-02-14T15:43:25.078Z,96708.20
2023-02-14T15:45:57.918Z,96710.80
2023-02-14T15:48:38.000Z,96713.80
2023-02-14T15:51:26.098Z,96720.00
2023-02-14T15:54:07.505Z,96720.80
2023-02-14T15:56:42.196Z,96717.80
2023-02-14T15:59:23.680Z,96718.20
2023-02-14T16:02:02.189Z,96722.80
2023-02-14T16:04:34.044Z,96715.40
2023-02-14T16:07:28.296Z,96719.60
2023-02-14T16:10:24.469Z,96714.60
2023-02-14T16:13:14.856Z,96715.40
2023-02-14T16:16:05.281Z,96720.20
2023-02-14T16:18:48.189Z,96715.20
2023-02-14T16:21:26.848Z,96721.00
2023-02-14T16:24:06.554Z,96723.80
2023-02-14T16:26:36.775Z,96723.80
2023-02-14T16:29:05.644Z,96731.80
2023-02-14T16:31:33.740Z,96727.60
2023-02-14T16:34:00.645Z,96726.60
2023-02-14T16:36:33.173Z,96720.80
2023-02-14T16:39:07.685Z,96725.40
2023-02-14T16:41:34.899Z,96726.60
2023-02-14T16:44:01.563Z,96728.80
2023-02-14T16:46:35.391Z,96736.40
2023-02-14T16:49:02.428Z,96739.60
2023-02-14T16:51:33.279Z,96734.40
2023-02-14T16:54:04.679Z,96740.40
2023-02-14T16:56:49.639Z,96741.60
2023-02-14T16:59:16.272Z,96743.20
2023-02-14T17:01:42.906Z,96747.00
2023-02-14T17:04:10.179Z,96748.40
2023-02-14T17:06:41.513Z,96750.40
2023-02-14T17:09:12.254Z,96755.00
2023-02-14T17:11:46.784Z,96756.40
2023-02-14T17:14:19.892Z,96757.00
2023-02-14T17:16:46.730Z,96756.40
2023-02-14T17:19:13.729Z,96757.80
2023-02-14T17:21:41.065Z,96757.40
2023-02-14T17:24:07.844Z,96758.00
2023-02-14T17:26:35.223Z,96759.40
2023-02-14T17:29:01.906Z,96760.80
2023-02-14T17:31:28.722Z,96765.80
2023-02-14T17:33:56.188Z,96764.40
2023-02-14T17:36:24.157Z,96766.80
2023-02-14T17:38:54.864Z,96764.00
2023-02-14T17:41:25.461Z,96766.60
2023-02-14T17:43:54.865Z,96772.20
2023-02-14T17:46:22.069Z,96765.00
2023-02-14T17:48:49.773Z,96767.80
2023-02-14T17:51:18.156Z,96768.60
2023-02-14T17:53:44.893Z,96764.80
2023-02-14T17:56:20.483Z,96767.40
2023-02-14T17:58:49.239Z,96768.80
2023-02-14T18:01:19.383Z,96768.20
2023-02-14T18:03:46.170Z,96766.40
2023-02-14T18:06:14.413Z,96765.40
2023-02-14T18:08:49.321Z,96760.80
2023-02-14T18:11:20.527Z,96755.40
2023-02-14T18:13:47.760Z,96761.60
2023-02-14T18:16:18.149Z,96765.00
2023-02-14T18:18:45.754Z,96761.60
2023-02-14T18:21:15.802Z,96760.20
2023-02-14T18:23:43.339Z,96762.20
2023-02-14T18:26:13.707Z,96758.00
2023-02-14T18:28:40.630Z,96759.20
2023-02-14T18:31:14.628Z,96760.40
2023-02-14T18:33:42.451Z,96752.40
2023-02-14T18:36:14.257Z,96744.00
2023-02-14T18:38:43.420Z,96747.20
2023-02-14T18:41:14.231Z,96747.80
2023-02-14T18:43:41.567Z,96752.60
2023-02-14T18:46:15.351Z,96750.00
2023-02-14T18:48:42.353Z,96744.00
2023-02-14T18:51:13.535Z,96741.00
2023-02-14T18:53:41.170Z,96744.80
2023-02-14T18:56:15.101Z,96740.00
2023-02-14T18:58:46.274Z,96743.20
2023-02-14T19:01:19.658Z,96739.40
2023-02-14T19:03:46.620Z,96734.00
2023-02-14T19:06:13.291Z,96732.80
2023-02-14T19:08:41.462Z,96730.20
2023-02-14T19:11:18.213Z,96730.60
2023-02-14T19:13:51.053Z,96729.40
2023-02-14T19:16:25.586Z,96723.20
2023-02-14T19:18:55.835Z,96720.60
2023-02-14T19:21:26.167Z,96721.60
2023-02-14T19:23:58.592Z,96720.80
2023-02-14T19:26:29.800Z,96721.00
2023-02-14T19:28:59.909Z,96718.40
2023-02-14T19:31:27.479Z,96715.00
2023-02-14T19:33:54.919Z,96714.60
2023-02-14T19:36:23.977Z,96719.80
2023-02-14T19:38:53.258Z,96714.40
2023-02-14T19:41:26.245Z,96716.20
2023-02-14T19:43:58.887Z,96717.40
2023-02-14T19:46:26.571Z,96715.00
2023-02-14T19:48:53.819Z,96713.20
2023-02-14T19:51:30.488Z,96706.20
2023-02-14T19:54:00.335Z,96706.00
2023-02-14T19:56:33.601Z,96701.00
2023-02-14T19:59:07.438Z,96702.00
2023-02-14T20:01:46.658Z,96701.60
2023-02-14T20:04:18.288Z,96698.60
2023-02-14T20:06:46.143Z,96700.00
2023-02-14T20:09:14.591Z,96698.40
2023-02-14T20:11:54.504Z,96702.00
2023-02-14T20:14:25.717Z,96700.40
2023-02-14T20:16:54.801Z,96697.20
2023-02-14T20:19:26.877Z,96697.20
2023-02-14T20:21:54.510Z,96702.80
2023-02-14T20:24:25.668Z,96696.40
2023-02-14T20:26:53.750Z,96693.80
2023-02-14T20:29:23.452Z,96695.60
2023-02-14T20:31:54.871Z,96694.00
2023-02-14T20:34:21.840Z,96692.80
2023-02-14T20:36:53.440Z,96691.60
2023-02-14T20:39:22.391Z,96683.20
2023-02-14T20:41:50.230Z,96678.20
2023-02-14T20:44:22.249Z,96675.60
2023-02-14T20:46:52.246Z,96675.40
2023-02-14T20:49:20.971Z,96669.20
2023-02-14T20:51:51.971Z,96670.60
2023-02-14T20:54:21.522Z,96673.80
2023-02-14T20:56:48.796Z,96671.20
2023-02-14T20:59:15.372Z,96671.00
2023-02-14T21:01:42.692Z,96668.00
2023-02-14T21:04:09.303Z,96666.20
2023-02-14T21:06:39.812Z,96663.80
2023-02-14T21:09:06.667Z,96660.80
2023-02-14T21:11:33.349Z,96652.40
2023-02-14T21:14:02.173Z,96659.20
2023-02-14T21:16:30.408Z,96651.00
2023-02-14T21:18:59.339Z,96652.00
2023-02-14T21:21:34.890Z,96651.80
2023-02-14T21:24:14.695Z,96655.80
2023-02-14T21:26:42.521Z,96648.00
2023-02-14T21:29:09.697Z,96648.20
2023-02-14T21:31:38.302Z,96646.40
2023-02-14T21:34:05.304Z,96656.00
2023-02-14T21:36:35.952Z,96657.20
2023-02-14T21:39:05.705Z,96658.20
2023-02-14T21:41:34.180Z,96656.60
2023-02-14T21:44:02.532Z,96653.00
2023-02-14T21:46:32.754Z,96647.60
2023-02-14T21:49:24.126Z,96649.20
2023-02-14T21:51:50.835Z,96642.20
2023-02-14T21:54:17.986Z,96637.20
2023-02-14T21:56:45.102Z,96633.20
2023-02-14T21:59:12.024Z,96636.40
2023-02-14T22:01:41.177Z,96632.60
2023-02-14T22:04:10.747Z,96630.80
2023-02-14T22:06:40.691Z,96627.00
2023-02-14T22:09:09.269Z,96622.00
2023-02-14T22:11:35.975Z,96620.20
2023-02-14T22:14:02.764Z,96617.40
2023-02-14T22:16:29.402Z,96613.60
2023-02-14T22:18:56.253Z,96612.20
2023-02-14T22:21:26.777Z,96610.60
2023-02-14T22:23:55.351Z,96608.60
2023-02-14T22:26:25.732Z,96604.80
2023-02-14T22:28:57.084Z,96604.80
2023-02-14T22:31:26.462Z,96607.80
2023-02-14T22:33:54.072Z,96605.60
2023-02-14T22:36:21.374Z,96604.40
2023-02-14T22:38:48.392Z,96607.40
2023-02-14T22:41:18.333Z,96610.00
2023-02-14T22:43:46.317Z,96606.80
2023-02-14T22:46:21.315Z,96597.80
2023-02-14T22:48:49.558Z,96597.20
2023-02-14T22:51:38.334Z,96598.40
2023-02-14T22:54:13.305Z,96599.20
2023-02-14T22:56:43.545Z,96596.80
2023-02-14T22:59:24.584Z,96600.20
2023-02-14T23:01:53.446Z,96595.40
2023-02-14T23:04:22.798Z,96598.40
2023-02-14T23:06:52.351Z,96599.60
2023-02-14T23:09:20.165Z,96597.40
2023-02-14T23:11:48.170Z,96599.80
2023-02-14T23:14:36.045Z,96595.80
2023-02-14T23:17:22.930Z,96594.20
2023-02-14T23:20:08.537Z,96598.20
2023-02-14T23:22:40.998Z,96598.60
2023-02-14T23:25:11.339Z,96591.60
2023-02-14T23:27:56.711Z,96587.40
2023-02-14T23:30:23.346Z,96589.40
2023-02-14T23:32:49.967Z,96589.20
2023-02-14T23:35:16.777Z,96585.60
2023-02-14T23:37:43.391Z,96584.80
2023-02-14T23:40:10.625Z,96581.00
2023-02-14T23:42:37.531Z,96581.80
2023-02-14T23:45:23.233Z,96580.00
2023-02-14T23:47:49.932Z,96581.00
2023-02-14T23:50:16.806Z,96579.40
2023-02-14T23:52:44.494Z,96576.80
2023-02-14T23:55:11.288Z,96576.00
2023-02-14T23:57:37.872Z,96570.00
